AFL263 URMM-URSS
Flight info
| Callsign | AFL263 |
|---|---|
| Flight time | 0h 41m |
| Altitude | 28000 |
| Route | URMM ABELA B967 ERSAR G487 BINOL URSS |
| Aircraft | B738/M-SDE2E3FGHIRWXY/LB1 |
Departure
| Time | 2026-05-01 08:12 |
|---|---|
| Airport | Mineralnye Vody Airport (URMM) |
Arrival
| Time | 2026-05-01 08:53 |
|---|---|
| Airport | Sochi International Airport (URSS) |
| Time | Latitude | Longitude | Altitude | Speed | Heading |
|---|---|---|---|---|---|
| 2026-05-01 07:59 | 44.21887 | 43.08900 | 1050 ft | 2 kts | 246° |
| 2026-05-01 08:00 | 44.21886 | 43.08935 | 1050 ft | 0 kts | 299° |
| 2026-05-01 08:02 | 44.21914 | 43.08875 | 1050 ft | 8 kts | 303° |
| 2026-05-01 08:02 | 44.21949 | 43.08799 | 1050 ft | 10 kts | 302° |
| 2026-05-01 08:03 | 44.22009 | 43.08636 | 1050 ft | 9 kts | 280° |
| 2026-05-01 08:03 | 44.22035 | 43.08554 | 1050 ft | 9 kts | 302° |
| 2026-05-01 08:03 | 44.22102 | 43.08406 | 1050 ft | 9 kts | 302° |
| 2026-05-01 08:04 | 44.22170 | 43.08254 | 1050 ft | 9 kts | 302° |
| 2026-05-01 08:04 | 44.22238 | 43.08103 | 1050 ft | 11 kts | 302° |
| 2026-05-01 08:05 | 44.22327 | 43.07903 | 1050 ft | 13 kts | 302° |
| 2026-05-01 08:05 | 44.22373 | 43.07801 | 1050 ft | 12 kts | 302° |
| 2026-05-01 08:05 | 44.22418 | 43.07702 | 1050 ft | 12 kts | 302° |
| 2026-05-01 08:06 | 44.22504 | 43.07514 | 1050 ft | 11 kts | 302° |
| 2026-05-01 08:06 | 44.22586 | 43.07333 | 1050 ft | 11 kts | 302° |
| 2026-05-01 08:07 | 44.22656 | 43.07182 | 1050 ft | 11 kts | 309° |
| 2026-05-01 08:07 | 44.22769 | 43.07124 | 1050 ft | 7 kts | 346° |
| 2026-05-01 08:08 | 44.22812 | 43.07109 | 1050 ft | 6 kts | 346° |
| 2026-05-01 08:08 | 44.22893 | 43.07081 | 1050 ft | 7 kts | 346° |
| 2026-05-01 08:09 | 44.23005 | 43.07068 | 1050 ft | 9 kts | 28° |
| 2026-05-01 08:09 | 44.23024 | 43.07140 | 1050 ft | 8 kts | 90° |
| 2026-05-01 08:09 | 44.23022 | 43.07219 | 1050 ft | 8 kts | 92° |
| 2026-05-01 08:10 | 44.23018 | 43.07372 | 1051 ft | 8 kts | 92° |
| 2026-05-01 08:10 | 44.23009 | 43.07514 | 1051 ft | 7 kts | 96° |
| 2026-05-01 08:11 | 44.22987 | 43.07626 | 1050 ft | 5 kts | 123° |
| 2026-05-01 08:11 | 44.22678 | 43.08306 | 1049 ft | 108 kts | 122° |
| 2026-05-01 08:12 | 44.21544 | 43.10786 | 1842 ft | 163 kts | 122° |
| 2026-05-01 08:12 | 44.20951 | 43.12038 | 2933 ft | 149 kts | 117° |
| 2026-05-01 08:12 | 44.19829 | 43.14581 | 4425 ft | 159 kts | 121° |
| 2026-05-01 08:13 | 44.19184 | 43.16016 | 4761 ft | 188 kts | 123° |
| 2026-05-01 08:13 | 44.18439 | 43.17660 | 4964 ft | 213 kts | 123° |
| 2026-05-01 08:13 | 44.16721 | 43.21424 | 5752 ft | 248 kts | 124° |
| 2026-05-01 08:14 | 44.15815 | 43.23511 | 6500 ft | 259 kts | 115° |
| 2026-05-01 08:14 | 44.15515 | 43.26032 | 7207 ft | 272 kts | 88° |
| 2026-05-01 08:14 | 44.16014 | 43.28636 | 7875 ft | 288 kts | 65° |
| 2026-05-01 08:14 | 44.17286 | 43.30843 | 8566 ft | 301 kts | 39° |
| 2026-05-01 08:15 | 44.19159 | 43.32130 | 9429 ft | 301 kts | 11° |
| 2026-05-01 08:15 | 44.23084 | 43.30877 | 10627 ft | 310 kts | 317° |
| 2026-05-01 08:15 | 44.24605 | 43.28621 | 10843 ft | 329 kts | 302° |
| 2026-05-01 08:16 | 44.25929 | 43.25898 | 11024 ft | 351 kts | 300° |
| 2026-05-01 08:16 | 44.27319 | 43.22995 | 11422 ft | 365 kts | 301° |
| 2026-05-01 08:16 | 44.28782 | 43.20056 | 12119 ft | 369 kts | 301° |
| 2026-05-01 08:16 | 44.29964 | 43.16919 | 12936 ft | 364 kts | 283° |
| 2026-05-01 08:17 | 44.30282 | 43.13460 | 13801 ft | 358 kts | 266° |
| 2026-05-01 08:17 | 44.29874 | 43.10057 | 14529 ft | 356 kts | 252° |
| 2026-05-01 08:17 | 44.29144 | 43.06735 | 15230 ft | 359 kts | 251° |
| 2026-05-01 08:17 | 44.28410 | 43.03438 | 15890 ft | 361 kts | 251° |
| 2026-05-01 08:18 | 44.27679 | 43.00064 | 16555 ft | 364 kts | 252° |
| 2026-05-01 08:18 | 44.26224 | 42.93242 | 17842 ft | 369 kts | 252° |
| 2026-05-01 08:19 | 44.24748 | 42.86314 | 19003 ft | 374 kts | 252° |
| 2026-05-01 08:19 | 44.24003 | 42.82825 | 19552 ft | 376 kts | 252° |
| 2026-05-01 08:19 | 44.23251 | 42.79307 | 20083 ft | 379 kts | 252° |
| 2026-05-01 08:19 | 44.22503 | 42.75816 | 20571 ft | 382 kts | 252° |
| 2026-05-01 08:20 | 44.21740 | 42.72259 | 21085 ft | 384 kts | 252° |
| 2026-05-01 08:20 | 44.20968 | 42.68666 | 21593 ft | 386 kts | 252° |
| 2026-05-01 08:20 | 44.20194 | 42.65069 | 22085 ft | 388 kts | 252° |
| 2026-05-01 08:20 | 44.19414 | 42.61458 | 22567 ft | 390 kts | 253° |
| 2026-05-01 08:21 | 44.18824 | 42.57747 | 22997 ft | 394 kts | 261° |
| 2026-05-01 08:21 | 44.18568 | 42.53933 | 23456 ft | 397 kts | 264° |
| 2026-05-01 08:21 | 44.18372 | 42.50126 | 23860 ft | 399 kts | 264° |
| 2026-05-01 08:21 | 44.18180 | 42.46253 | 24251 ft | 401 kts | 264° |
| 2026-05-01 08:22 | 44.17978 | 42.42365 | 24636 ft | 402 kts | 264° |
| 2026-05-01 08:22 | 44.17761 | 42.38474 | 24992 ft | 404 kts | 263° |
| 2026-05-01 08:22 | 44.17530 | 42.34560 | 25393 ft | 405 kts | 263° |
| 2026-05-01 08:22 | 44.17291 | 42.30644 | 25792 ft | 406 kts | 263° |
| 2026-05-01 08:23 | 44.17047 | 42.26717 | 26148 ft | 407 kts | 263° |
| 2026-05-01 08:23 | 44.16799 | 42.22789 | 26608 ft | 406 kts | 263° |
| 2026-05-01 08:23 | 44.16553 | 42.18930 | 27142 ft | 403 kts | 263° |
| 2026-05-01 08:23 | 44.16306 | 42.15057 | 27660 ft | 401 kts | 263° |
| 2026-05-01 08:24 | 44.16057 | 42.11196 | 28000 ft | 401 kts | 263° |
| 2026-05-01 08:24 | 44.15806 | 42.07317 | 27996 ft | 401 kts | 263° |
| 2026-05-01 08:24 | 44.15554 | 42.03443 | 28005 ft | 401 kts | 262° |
| 2026-05-01 08:24 | 44.15301 | 41.99581 | 27995 ft | 400 kts | 262° |
| 2026-05-01 08:25 | 44.15048 | 41.95717 | 28006 ft | 400 kts | 262° |
| 2026-05-01 08:25 | 44.14539 | 41.88036 | 28014 ft | 401 kts | 262° |
| 2026-05-01 08:26 | 44.14022 | 41.80304 | 28002 ft | 401 kts | 262° |
| 2026-05-01 08:26 | 44.13499 | 41.72551 | 28012 ft | 402 kts | 262° |
| 2026-05-01 08:27 | 44.12969 | 41.64786 | 28011 ft | 402 kts | 262° |
| 2026-05-01 08:27 | 44.12704 | 41.60914 | 27997 ft | 401 kts | 262° |
| 2026-05-01 08:27 | 44.12437 | 41.57038 | 27997 ft | 401 kts | 262° |
| 2026-05-01 08:28 | 44.11822 | 41.49386 | 27996 ft | 399 kts | 257° |
| 2026-05-01 08:28 | 44.11131 | 41.45654 | 27997 ft | 398 kts | 250° |
| 2026-05-01 08:28 | 44.10087 | 41.42083 | 27988 ft | 397 kts | 246° |
| 2026-05-01 08:28 | 44.08990 | 41.38560 | 27990 ft | 397 kts | 246° |
| 2026-05-01 08:29 | 44.07894 | 41.35025 | 27992 ft | 397 kts | 246° |
| 2026-05-01 08:29 | 44.06803 | 41.31491 | 27996 ft | 398 kts | 246° |
| 2026-05-01 08:29 | 44.05714 | 41.27947 | 27988 ft | 398 kts | 247° |
| 2026-05-01 08:29 | 44.04636 | 41.24437 | 27988 ft | 398 kts | 247° |
| 2026-05-01 08:30 | 44.03549 | 41.20894 | 27998 ft | 399 kts | 247° |
| 2026-05-01 08:30 | 44.02459 | 41.17343 | 27979 ft | 399 kts | 246° |
| 2026-05-01 08:30 | 44.01367 | 41.13791 | 27975 ft | 399 kts | 246° |
| 2026-05-01 08:30 | 44.00274 | 41.10237 | 27965 ft | 400 kts | 246° |
| 2026-05-01 08:31 | 43.99179 | 41.06683 | 27962 ft | 401 kts | 246° |
| 2026-05-01 08:31 | 43.98080 | 41.03125 | 27966 ft | 402 kts | 246° |
| 2026-05-01 08:31 | 43.96975 | 40.99549 | 27964 ft | 402 kts | 246° |
| 2026-05-01 08:31 | 43.95871 | 40.95981 | 27985 ft | 403 kts | 246° |
| 2026-05-01 08:32 | 43.94777 | 40.92453 | 27976 ft | 402 kts | 246° |
| 2026-05-01 08:32 | 43.93672 | 40.88890 | 27983 ft | 401 kts | 246° |
| 2026-05-01 08:32 | 43.92566 | 40.85330 | 27978 ft | 401 kts | 246° |
| 2026-05-01 08:32 | 43.91459 | 40.81773 | 27967 ft | 401 kts | 246° |
| 2026-05-01 08:33 | 43.90352 | 40.78214 | 27979 ft | 401 kts | 246° |
| 2026-05-01 08:33 | 43.89243 | 40.74659 | 27975 ft | 400 kts | 246° |
| 2026-05-01 08:33 | 43.88135 | 40.71117 | 27974 ft | 400 kts | 246° |
| 2026-05-01 08:33 | 43.87037 | 40.67634 | 27959 ft | 399 kts | 246° |
| 2026-05-01 08:34 | 43.85905 | 40.64078 | 27953 ft | 397 kts | 246° |
| 2026-05-01 08:34 | 43.84798 | 40.60614 | 27648 ft | 390 kts | 246° |
| 2026-05-01 08:34 | 43.83728 | 40.57268 | 27231 ft | 382 kts | 246° |
| 2026-05-01 08:34 | 43.82661 | 40.53931 | 26778 ft | 375 kts | 246° |
| 2026-05-01 08:35 | 43.81608 | 40.50643 | 26272 ft | 370 kts | 246° |
| 2026-05-01 08:35 | 43.80569 | 40.47401 | 25767 ft | 367 kts | 246° |
| 2026-05-01 08:35 | 43.79539 | 40.44185 | 25235 ft | 364 kts | 245° |
| 2026-05-01 08:35 | 43.78513 | 40.40990 | 24741 ft | 361 kts | 245° |
| 2026-05-01 08:36 | 43.77499 | 40.37833 | 24269 ft | 357 kts | 245° |
| 2026-05-01 08:36 | 43.76494 | 40.34708 | 23783 ft | 354 kts | 245° |
| 2026-05-01 08:36 | 43.75491 | 40.31593 | 23248 ft | 353 kts | 245° |
| 2026-05-01 08:36 | 43.74491 | 40.28489 | 22710 ft | 351 kts | 245° |
| 2026-05-01 08:37 | 43.73497 | 40.25410 | 22202 ft | 349 kts | 245° |
| 2026-05-01 08:37 | 43.72513 | 40.22362 | 21724 ft | 346 kts | 245° |
| 2026-05-01 08:37 | 43.71545 | 40.19370 | 21248 ft | 343 kts | 245° |
| 2026-05-01 08:37 | 43.70575 | 40.16374 | 20774 ft | 341 kts | 245° |
| 2026-05-01 08:38 | 43.69559 | 40.13435 | 20297 ft | 338 kts | 238° |
| 2026-05-01 08:38 | 43.68026 | 40.10986 | 19878 ft | 336 kts | 224° |
| 2026-05-01 08:38 | 43.66122 | 40.09126 | 19540 ft | 338 kts | 211° |
| 2026-05-01 08:38 | 43.63959 | 40.07731 | 19213 ft | 348 kts | 207° |
| 2026-05-01 08:39 | 43.61724 | 40.06366 | 18861 ft | 354 kts | 207° |
| 2026-05-01 08:39 | 43.59468 | 40.04971 | 18502 ft | 354 kts | 207° |
| 2026-05-01 08:39 | 43.57229 | 40.03576 | 18155 ft | 351 kts | 207° |
| 2026-05-01 08:39 | 43.55008 | 40.02190 | 17767 ft | 348 kts | 207° |
| 2026-05-01 08:40 | 43.50649 | 39.99463 | 17050 ft | 343 kts | 207° |
| 2026-05-01 08:40 | 43.48474 | 39.98104 | 16686 ft | 341 kts | 207° |
| 2026-05-01 08:40 | 43.46328 | 39.96765 | 16395 ft | 338 kts | 207° |
| 2026-05-01 08:41 | 43.44155 | 39.95515 | 16056 ft | 339 kts | 204° |
| 2026-05-01 08:41 | 43.41911 | 39.94456 | 15705 ft | 340 kts | 201° |
| 2026-05-01 08:41 | 43.39664 | 39.93464 | 15366 ft | 339 kts | 201° |
| 2026-05-01 08:41 | 43.37419 | 39.92482 | 15037 ft | 337 kts | 201° |
| 2026-05-01 08:42 | 43.35216 | 39.91509 | 14712 ft | 336 kts | 201° |
| 2026-05-01 08:42 | 43.33002 | 39.90522 | 14370 ft | 334 kts | 201° |
| 2026-05-01 08:42 | 43.30788 | 39.89526 | 14070 ft | 333 kts | 201° |
| 2026-05-01 08:42 | 43.28590 | 39.88533 | 13744 ft | 333 kts | 201° |
| 2026-05-01 08:43 | 43.26391 | 39.87536 | 13384 ft | 332 kts | 201° |
| 2026-05-01 08:43 | 43.24195 | 39.86541 | 13023 ft | 332 kts | 201° |
| 2026-05-01 08:43 | 43.21997 | 39.85544 | 12663 ft | 331 kts | 201° |
| 2026-05-01 08:43 | 43.19806 | 39.84551 | 12318 ft | 330 kts | 200° |
| 2026-05-01 08:44 | 43.17622 | 39.83563 | 11980 ft | 328 kts | 200° |
| 2026-05-01 08:44 | 43.15487 | 39.82597 | 11644 ft | 316 kts | 200° |
| 2026-05-01 08:44 | 43.13475 | 39.81690 | 11347 ft | 300 kts | 200° |
| 2026-05-01 08:44 | 43.11531 | 39.80813 | 11066 ft | 286 kts | 200° |
| 2026-05-01 08:45 | 43.09681 | 39.79979 | 10816 ft | 273 kts | 200° |
| 2026-05-01 08:45 | 43.07911 | 39.79172 | 10551 ft | 261 kts | 203° |
| 2026-05-01 08:45 | 43.06444 | 39.77840 | 10310 ft | 254 kts | 227° |
| 2026-05-01 08:45 | 43.05540 | 39.75754 | 9739 ft | 267 kts | 251° |
| 2026-05-01 08:46 | 43.05280 | 39.73275 | 9371 ft | 272 kts | 268° |
| 2026-05-01 08:46 | 43.05688 | 39.70671 | 8605 ft | 289 kts | 289° |
| 2026-05-01 08:46 | 43.06846 | 39.68355 | 7834 ft | 305 kts | 313° |
| 2026-05-01 08:46 | 43.08696 | 39.66810 | 7037 ft | 320 kts | 339° |
| 2026-05-01 08:47 | 43.10926 | 39.66397 | 6197 ft | 328 kts | 6° |
| 2026-05-01 08:47 | 43.13111 | 39.67257 | 5364 ft | 329 kts | 31° |
| 2026-05-01 08:47 | 43.14964 | 39.68953 | 4844 ft | 320 kts | 42° |
| 2026-05-01 08:47 | 43.16682 | 39.70852 | 4396 ft | 313 kts | 44° |
| 2026-05-01 08:48 | 43.18340 | 39.72732 | 3958 ft | 305 kts | 44° |
| 2026-05-01 08:48 | 43.19965 | 39.74547 | 3571 ft | 295 kts | 43° |
| 2026-05-01 08:48 | 43.21541 | 39.76272 | 3210 ft | 285 kts | 42° |
| 2026-05-01 08:48 | 43.23075 | 39.77926 | 2848 ft | 276 kts | 41° |
| 2026-05-01 08:49 | 43.24565 | 39.79524 | 2514 ft | 268 kts | 40° |
| 2026-05-01 08:49 | 43.26011 | 39.81072 | 2179 ft | 260 kts | 40° |
| 2026-05-01 08:49 | 43.27434 | 39.82506 | 2017 ft | 246 kts | 31° |
| 2026-05-01 08:49 | 43.28910 | 39.83572 | 1916 ft | 235 kts | 27° |
| 2026-05-01 08:50 | 43.30273 | 39.84563 | 1848 ft | 217 kts | 26° |
| 2026-05-01 08:50 | 43.31578 | 39.85540 | 1692 ft | 202 kts | 26° |
| 2026-05-01 08:50 | 43.32762 | 39.86433 | 1840 ft | 190 kts | 27° |
| 2026-05-01 08:50 | 43.33910 | 39.87296 | 1924 ft | 187 kts | 27° |
| 2026-05-01 08:51 | 43.35038 | 39.88145 | 1837 ft | 183 kts | 27° |
| 2026-05-01 08:51 | 43.36133 | 39.88969 | 1638 ft | 175 kts | 27° |
| 2026-05-01 08:51 | 43.37180 | 39.89757 | 1419 ft | 173 kts | 27° |
| 2026-05-01 08:51 | 43.38233 | 39.90549 | 1218 ft | 172 kts | 27° |
| 2026-05-01 08:52 | 43.39291 | 39.91345 | 1002 ft | 173 kts | 26° |
| 2026-05-01 08:52 | 43.40342 | 39.92136 | 748 ft | 169 kts | 25° |
| 2026-05-01 08:52 | 43.41018 | 39.92645 | 630 ft | 160 kts | 26° |
| 2026-05-01 08:52 | 43.41982 | 39.93369 | 416 ft | 156 kts | 26° |
| 2026-05-01 08:53 | 43.42937 | 39.94085 | 230 ft | 157 kts | 26° |
| 2026-05-01 08:53 | 43.43886 | 39.94788 | 72 ft | 148 kts | 28° |
| 2026-05-01 08:53 | 43.44638 | 39.95358 | 86 ft | 92 kts | 30° |
| 2026-05-01 08:53 | 43.45009 | 39.95642 | 91 ft | 31 kts | 28° |
| 2026-05-01 08:54 | 43.45122 | 39.95727 | 89 ft | 17 kts | 28° |
| 2026-05-01 08:54 | 43.45224 | 39.95802 | 91 ft | 12 kts | 28° |
| 2026-05-01 08:54 | 43.45280 | 39.95834 | 95 ft | 8 kts | 352° |
| 2026-05-01 08:54 | 43.45284 | 39.95778 | 93 ft | 7 kts | 247° |
| 2026-05-01 08:55 | 43.45256 | 39.95715 | 90 ft | 8 kts | 236° |
| 2026-05-01 08:55 | 43.45225 | 39.95645 | 90 ft | 8 kts | 240° |
| 2026-05-01 08:55 | 43.45195 | 39.95575 | 93 ft | 8 kts | 238° |
| 2026-05-01 08:55 | 43.45164 | 39.95512 | 93 ft | 8 kts | 235° |
| 2026-05-01 08:56 | 43.45132 | 39.95450 | 92 ft | 8 kts | 235° |
| 2026-05-01 08:56 | 43.45102 | 39.95384 | 89 ft | 9 kts | 242° |
| 2026-05-01 08:56 | 43.45074 | 39.95300 | 87 ft | 11 kts | 245° |
| 2026-05-01 08:56 | 43.45040 | 39.95201 | 89 ft | 12 kts | 245° |
| 2026-05-01 08:57 | 43.45009 | 39.95111 | 82 ft | 9 kts | 242° |
| 2026-05-01 08:57 | 43.44972 | 39.95053 | 83 ft | 8 kts | 231° |
| 2026-05-01 08:57 | 43.44944 | 39.94981 | 72 ft | 9 kts | 244° |
| 2026-05-01 08:57 | 43.44913 | 39.94891 | 76 ft | 11 kts | 245° |
| 2026-05-01 08:58 | 43.44878 | 39.94789 | 68 ft | 13 kts | 245° |
| 2026-05-01 08:58 | 43.44844 | 39.94689 | 70 ft | 10 kts | 244° |
| 2026-05-01 08:58 | 43.44816 | 39.94607 | 69 ft | 9 kts | 244° |
| 2026-05-01 08:58 | 43.44788 | 39.94526 | 66 ft | 9 kts | 245° |
| 2026-05-01 08:59 | 43.44767 | 39.94463 | 69 ft | 4 kts | 245° |
| 2026-05-01 08:59 | 43.44762 | 39.94424 | 68 ft | 4 kts | 278° |
| 2026-05-01 08:59 | 43.44781 | 39.94397 | 70 ft | 4 kts | 326° |
| 2026-05-01 08:59 | 43.44801 | 39.94383 | 73 ft | 3 kts | 334° |
| 2026-05-01 09:00 | 43.44811 | 39.94376 | 70 ft | 1 kts | 335° |
| 2026-05-01 09:00 | 43.44815 | 39.94374 | 71 ft | 0 kts | 335° |